sensor_id;sensor_type;location;lat;lon;timestamp;pressure;altitude;pressure_sealevel;temperature;humidity
5522;BME280;2783;48.730;8.006;2023-04-10T00:00:47;100643.75;;;7.47;85.84
5522;BME280;2783;48.730;8.006;2023-04-10T00:03:13;100638.53;;;7.41;86.43
5522;BME280;2783;48.730;8.006;2023-04-10T00:05:39;100647.31;;;7.44;86.53
5522;BME280;2783;48.730;8.006;2023-04-10T00:08:04;100650.00;;;7.40;86.19
5522;BME280;2783;48.730;8.006;2023-04-10T00:10:29;100654.44;;;7.39;86.89
5522;BME280;2783;48.730;8.006;2023-04-10T00:12:56;100646.53;;;7.36;86.64
5522;BME280;2783;48.730;8.006;2023-04-10T00:15:21;100647.44;;;7.31;86.56
5522;BME280;2783;48.730;8.006;2023-04-10T00:17:46;100645.72;;;7.25;87.37
5522;BME280;2783;48.730;8.006;2023-04-10T00:20:14;100644.88;;;7.22;87.95
5522;BME280;2783;48.730;8.006;2023-04-10T00:22:39;100648.44;;;7.18;88.23
5522;BME280;2783;48.730;8.006;2023-04-10T00:25:06;100629.97;;;7.10;87.86
5522;BME280;2783;48.730;8.006;2023-04-10T00:27:31;100628.25;;;7.09;88.78
5522;BME280;2783;48.730;8.006;2023-04-10T00:29:56;100640.59;;;7.07;88.36
5522;BME280;2783;48.730;8.006;2023-04-10T00:32:21;100633.56;;;7.06;89.23
5522;BME280;2783;48.730;8.006;2023-04-10T00:34:47;100637.13;;;7.02;89.31
5522;BME280;2783;48.730;8.006;2023-04-10T00:37:12;100635.38;;;7.01;88.70
5522;BME280;2783;48.730;8.006;2023-04-10T00:39:37;100636.34;;;6.91;89.52
5522;BME280;2783;48.730;8.006;2023-04-10T00:42:02;100641.63;;;6.90;89.74
5522;BME280;2783;48.730;8.006;2023-04-10T00:44:28;100631.97;;;6.84;89.72
5522;BME280;2783;48.730;8.006;2023-04-10T00:46:53;100637.28;;;6.81;90.00
5522;BME280;2783;48.730;8.006;2023-04-10T00:49:18;100631.16;;;6.75;90.18
5522;BME280;2783;48.730;8.006;2023-04-10T00:51:44;100639.13;;;6.73;90.46
5522;BME280;2783;48.730;8.006;2023-04-10T00:54:09;100637.38;;;6.72;90.32
5522;BME280;2783;48.730;8.006;2023-04-10T00:56:35;100640.91;;;6.69;90.36
5522;BME280;2783;48.730;8.006;2023-04-10T00:59:00;100641.81;;;6.64;91.15
5522;BME280;2783;48.730;8.006;2023-04-10T01:01:26;100644.47;;;6.61;91.24
5522;BME280;2783;48.730;8.006;2023-04-10T01:03:52;100635.69;;;6.59;92.35
5522;BME280;2783;48.730;8.006;2023-04-10T01:06:22;100643.63;;;6.60;91.79
5522;BME280;2783;48.730;8.006;2023-04-10T01:08:56;100652.38;;;6.64;91.90
5522;BME280;2783;48.730;8.006;2023-04-10T01:16:44;100653.25;;;6.66;92.47
5522;BME280;2783;48.730;8.006;2023-04-10T01:19:55;100648.88;;;6.63;92.85
5522;BME280;2783;48.730;8.006;2023-04-10T01:21:58;100651.53;;;6.62;93.18
5522;BME280;2783;48.730;8.006;2023-04-10T01:24:40;100650.63;;;6.63;93.17
5522;BME280;2783;48.730;8.006;2023-04-10T01:29:40;100649.78;;;6.58;92.66
5522;BME280;2783;48.730;8.006;2023-04-10T01:32:10;100646.31;;;6.53;92.85
5522;BME280;2783;48.730;8.006;2023-04-10T01:34:42;100647.22;;;6.49;93.09
5522;BME280;2783;48.730;8.006;2023-04-10T01:37:09;100649.00;;;6.45;93.65
5522;BME280;2783;48.730;8.006;2023-04-10T01:39:37;100647.19;;;6.47;93.61
5522;BME280;2783;48.730;8.006;2023-04-10T01:42:03;100649.03;;;6.42;93.75
5522;BME280;2783;48.730;8.006;2023-04-10T01:44:30;100658.69;;;6.45;93.68
5522;BME280;2783;48.730;8.006;2023-04-10T01:46:56;100654.28;;;6.45;93.83
5522;BME280;2783;48.730;8.006;2023-04-10T01:49:22;100650.81;;;6.39;93.26
5522;BME280;2783;48.730;8.006;2023-04-10T01:51:49;100641.13;;;6.35;93.57
5522;BME280;2783;48.730;8.006;2023-04-10T01:54:15;100642.88;;;6.33;93.14
5522;BME280;2783;48.730;8.006;2023-04-10T01:56:41;100646.44;;;6.29;93.64
5522;BME280;2783;48.730;8.006;2023-04-10T01:59:06;100644.69;;;6.31;93.78
5522;BME280;2783;48.730;8.006;2023-04-10T02:01:32;100639.41;;;6.31;94.16
5522;BME280;2783;48.730;8.006;2023-04-10T02:03:57;100635.00;;;6.30;94.14
5522;BME280;2783;48.730;8.006;2023-04-10T02:09:11;100627.94;;;6.30;93.61
5522;BME280;2783;48.730;8.006;2023-04-10T02:11:41;100624.41;;;6.30;94.34
5522;BME280;2783;48.730;8.006;2023-04-10T02:14:09;100628.84;;;6.31;94.30
5522;BME280;2783;48.730;8.006;2023-04-10T02:16:35;100622.59;;;6.38;93.64
5522;BME280;2783;48.730;8.006;2023-04-10T02:19:02;100628.75;;;6.40;94.15
5522;BME280;2783;48.730;8.006;2023-04-10T02:21:28;100630.56;;;6.35;93.81
5522;BME280;2783;48.730;8.006;2023-04-10T02:23:55;100631.41;;;6.38;93.68
5522;BME280;2783;48.730;8.006;2023-04-10T02:26:21;100636.72;;;6.35;94.42
5522;BME280;2783;48.730;8.006;2023-04-10T02:28:46;100639.38;;;6.34;94.28
5522;BME280;2783;48.730;8.006;2023-04-10T02:31:11;100634.06;;;6.37;93.46
5522;BME280;2783;48.730;8.006;2023-04-10T02:33:36;100634.09;;;6.34;94.26
5522;BME280;2783;48.730;8.006;2023-04-10T02:36:02;100628.84;;;6.31;93.51
5522;BME280;2783;48.730;8.006;2023-04-10T02:38:27;100631.47;;;6.31;93.74
5522;BME280;2783;48.730;8.006;2023-04-10T02:40:53;100628.81;;;6.28;94.51
5522;BME280;2783;48.730;8.006;2023-04-10T02:43:18;100629.75;;;6.24;94.49
5522;BME280;2783;48.730;8.006;2023-04-10T02:45:43;100626.22;;;6.22;94.58
5522;BME280;2783;48.730;8.006;2023-04-10T02:48:08;100618.28;;;6.23;94.06
5522;BME280;2783;48.730;8.006;2023-04-10T02:50:35;100616.56;;;6.22;94.48
5522;BME280;2783;48.730;8.006;2023-04-10T02:53:00;100624.47;;;6.22;94.59
5522;BME280;2783;48.730;8.006;2023-04-10T02:55:31;100609.47;;;6.27;93.65
5522;BME280;2783;48.730;8.006;2023-04-10T02:57:57;100611.25;;;6.27;94.05
5522;BME280;2783;48.730;8.006;2023-04-10T03:00:22;100610.38;;;6.25;93.87
5522;BME280;2783;48.730;8.006;2023-04-10T03:02:47;100606.84;;;6.23;93.80
5522;BME280;2783;48.730;8.006;2023-04-10T03:05:12;100604.19;;;6.23;94.35
5522;BME280;2783;48.730;8.006;2023-04-10T03:07:38;100605.97;;;6.24;94.19
5522;BME280;2783;48.730;8.006;2023-04-10T03:10:03;100598.06;;;6.24;93.78
5522;BME280;2783;48.730;8.006;2023-04-10T03:12:28;100593.63;;;6.23;93.89
5522;BME280;2783;48.730;8.006;2023-04-10T03:14:54;100590.97;;;6.24;94.35
5522;BME280;2783;48.730;8.006;2023-04-10T03:17:19;100592.72;;;6.30;94.22
5522;BME280;2783;48.730;8.006;2023-04-10T03:19:44;100587.41;;;6.34;93.95
5522;BME280;2783;48.730;8.006;2023-04-10T03:22:10;100589.19;;;6.32;93.60
5522;BME280;2783;48.730;8.006;2023-04-10T03:24:35;100575.06;;;6.36;93.79
5522;BME280;2783;48.730;8.006;2023-04-10T03:27:02;100572.44;;;6.35;94.21
5522;BME280;2783;48.730;8.006;2023-04-10T03:29:27;100568.03;;;6.35;93.77
5522;BME280;2783;48.730;8.006;2023-04-10T03:31:52;100567.13;;;6.38;93.97
5522;BME280;2783;48.730;8.006;2023-04-10T03:34:18;100561.00;;;6.31;94.49
5522;BME280;2783;48.730;8.006;2023-04-10T03:36:43;100563.63;;;6.33;94.21
5522;BME280;2783;48.730;8.006;2023-04-10T03:39:08;100564.53;;;6.32;93.93
5522;BME280;2783;48.730;8.006;2023-04-10T03:41:33;100562.78;;;6.28;94.36
5522;BME280;2783;48.730;8.006;2023-04-10T03:43:59;100562.81;;;6.25;94.07
5522;BME280;2783;48.730;8.006;2023-04-10T03:46:27;100565.47;;;6.22;94.13
5522;BME280;2783;48.730;8.006;2023-04-10T03:48:52;100557.59;;;6.17;94.11
5522;BME280;2783;48.730;8.006;2023-04-10T03:51:18;100558.47;;;6.15;93.84
5522;BME280;2783;48.730;8.006;2023-04-10T03:53:43;100558.50;;;6.12;94.21
5522;BME280;2783;48.730;8.006;2023-04-10T03:56:08;100559.38;;;6.14;93.26
5522;BME280;2783;48.730;8.006;2023-04-10T03:58:33;100558.53;;;6.09;93.86
5522;BME280;2783;48.730;8.006;2023-04-10T04:00:59;100555.91;;;6.04;93.97
5522;BME280;2783;48.730;8.006;2023-04-10T04:03:24;100554.13;;;6.06;93.37
5522;BME280;2783;48.730;8.006;2023-04-10T04:05:49;100557.69;;;6.02;94.15
5522;BME280;2783;48.730;8.006;2023-04-10T04:08:16;100548.91;;;5.99;93.52
5522;BME280;2783;48.730;8.006;2023-04-10T04:10:41;100559.47;;;5.97;93.91
5522;BME280;2783;48.730;8.006;2023-04-10T04:13:06;100552.44;;;5.96;93.39
5522;BME280;2783;48.730;8.006;2023-04-10T04:15:31;100555.09;;;5.90;94.18
5522;BME280;2783;48.730;8.006;2023-04-10T04:17:57;100556.00;;;5.89;93.92
5522;BME280;2783;48.730;8.006;2023-04-10T04:20:22;100549.88;;;5.83;93.72
5522;BME280;2783;48.730;8.006;2023-04-10T04:22:47;100548.09;;;5.79;94.03
5522;BME280;2783;48.730;8.006;2023-04-10T04:25:13;100548.06;;;5.82;93.54
5522;BME280;2783;48.730;8.006;2023-04-10T04:27:38;100543.72;;;5.82;93.79
5522;BME280;2783;48.730;8.006;2023-04-10T04:30:03;100549.88;;;5.80;93.79
5522;BME280;2783;48.730;8.006;2023-04-10T04:32:30;100557.78;;;5.77;94.11
5522;BME280;2783;48.730;8.006;2023-04-10T04:34:55;100541.94;;;5.75;94.38
5522;BME280;2783;48.730;8.006;2023-04-10T04:37:20;100555.13;;;5.77;94.01
5522;BME280;2783;48.730;8.006;2023-04-10T04:39:45;100562.19;;;5.72;94.34
5522;BME280;2783;48.730;8.006;2023-04-10T04:42:11;100567.50;;;5.69;94.66
5522;BME280;2783;48.730;8.006;2023-04-10T04:44:36;100571.91;;;5.70;94.81
5522;BME280;2783;48.730;8.006;2023-04-10T04:47:01;100573.59;;;5.77;95.05
5522;BME280;2783;48.730;8.006;2023-04-10T04:49:26;100576.25;;;5.80;95.65
5522;BME280;2783;48.730;8.006;2023-04-10T04:51:52;100567.47;;;5.78;95.30
5522;BME280;2783;48.730;8.006;2023-04-10T04:54:17;100570.13;;;5.75;94.96
5522;BME280;2783;48.730;8.006;2023-04-10T04:56:42;100580.69;;;5.73;95.12
5522;BME280;2783;48.730;8.006;2023-04-10T04:59:08;100578.91;;;5.74;94.92
5522;BME280;2783;48.730;8.006;2023-04-10T05:01:33;100578.06;;;5.73;95.37
5522;BME280;2783;48.730;8.006;2023-04-10T05:03:58;100590.34;;;5.73;95.49
5522;BME280;2783;48.730;8.006;2023-04-10T05:06:23;100581.53;;;5.74;95.31
5522;BME280;2783;48.730;8.006;2023-04-10T05:08:50;100583.31;;;5.75;95.51
5522;BME280;2783;48.730;8.006;2023-04-10T05:11:16;100587.72;;;5.74;94.96
5522;BME280;2783;48.730;8.006;2023-04-10T05:13:42;100586.81;;;5.80;95.54
5522;BME280;2783;48.730;8.006;2023-04-10T05:16:07;100585.06;;;5.85;95.50
5522;BME280;2783;48.730;8.006;2023-04-10T05:18:33;100584.16;;;5.86;94.81
5522;BME280;2783;48.730;8.006;2023-04-10T05:20:58;100587.69;;;5.88;94.88
5522;BME280;2783;48.730;8.006;2023-04-10T05:23:24;100582.38;;;5.94;94.65
5522;BME280;2783;48.730;8.006;2023-04-10T05:25:49;100575.28;;;6.00;95.13
5522;BME280;2783;48.730;8.006;2023-04-10T05:28:14;100576.09;;;6.11;94.87
5522;BME280;2783;48.730;8.006;2023-04-10T05:30:40;100581.28;;;6.28;95.49
5522;BME280;2783;48.730;8.006;2023-04-10T05:33:05;100570.63;;;6.43;94.59
5522;BME280;2783;48.730;8.006;2023-04-10T05:35:30;100572.25;;;6.62;95.27
5522;BME280;2783;48.730;8.006;2023-04-10T05:37:55;100576.50;;;6.80;94.64
5522;BME280;2783;48.730;8.006;2023-04-10T05:40:21;100578.16;;;6.91;93.23
5522;BME280;2783;48.730;8.006;2023-04-10T05:42:46;100589.47;;;7.05;93.05
5522;BME280;2783;48.730;8.006;2023-04-10T05:45:11;100591.13;;;7.17;92.32
5522;BME280;2783;48.730;8.006;2023-04-10T05:47:38;100597.16;;;7.31;92.00
5522;BME280;2783;48.730;8.006;2023-04-10T05:50:04;100591.78;;;7.38;91.17
5522;BME280;2783;48.730;8.006;2023-04-10T05:52:29;100589.91;;;7.49;91.45
5522;BME280;2783;48.730;8.006;2023-04-10T05:54:55;100590.53;;;7.72;90.56
5522;BME280;2783;48.730;8.006;2023-04-10T05:57:20;100601.72;;;7.92;89.33
5522;BME280;2783;48.730;8.006;2023-04-10T05:59:45;100596.13;;;8.17;89.60
5522;BME280;2783;48.730;8.006;2023-04-10T06:02:10;100593.22;;;8.38;88.29
5522;BME280;2783;48.730;8.006;2023-04-10T06:04:36;100592.75;;;8.68;88.36
5522;BME280;2783;48.730;8.006;2023-04-10T06:07:01;100590.13;;;9.16;86.45
5522;BME280;2783;48.730;8.006;2023-04-10T06:09:26;100582.34;;;9.97;83.15
5522;BME280;2783;48.730;8.006;2023-04-10T06:11:52;100589.84;;;10.95;78.16
5522;BME280;2783;48.730;8.006;2023-04-10T06:14:20;100572.66;;;11.73;73.46
5522;BME280;2783;48.730;8.006;2023-04-10T06:16:45;100581.78;;;12.25;70.40
5522;BME280;2783;48.730;8.006;2023-04-10T06:19:11;100585.16;;;12.86;66.03
5522;BME280;2783;48.730;8.006;2023-04-10T06:21:36;100582.06;;;13.51;61.69
5522;BME280;2783;48.730;8.006;2023-04-10T06:24:01;100579.41;;;13.98;59.45
5522;BME280;2783;48.730;8.006;2023-04-10T06:26:26;100582.97;;;14.88;55.44
5522;BME280;2783;48.730;8.006;2023-04-10T06:28:52;100583.34;;;15.82;51.81
5522;BME280;2783;48.730;8.006;2023-04-10T06:31:18;100583.53;;;16.55;49.64
5522;BME280;2783;48.730;8.006;2023-04-10T06:33:43;100584.94;;;17.17;46.90
5522;BME280;2783;48.730;8.006;2023-04-10T06:36:09;100593.47;;;17.77;45.50
5522;BME280;2783;48.730;8.006;2023-04-10T06:38:34;100586.81;;;18.50;44.05
5522;BME280;2783;48.730;8.006;2023-04-10T06:41:02;100573.94;;;18.86;42.78
5522;BME280;2783;48.730;8.006;2023-04-10T06:43:27;100565.50;;;19.67;41.93
5522;BME280;2783;48.730;8.006;2023-04-10T06:45:53;100570.34;;;20.04;40.29
5522;BME280;2783;48.730;8.006;2023-04-10T06:48:18;100572.31;;;19.58;40.89
5522;BME280;2783;48.730;8.006;2023-04-10T06:50:43;100572.38;;;20.00;41.22
5522;BME280;2783;48.730;8.006;2023-04-10T06:53:08;100574.41;;;20.11;41.33
5522;BME280;2783;48.730;8.006;2023-04-10T06:55:34;100570.63;;;19.85;40.43
5522;BME280;2783;48.730;8.006;2023-04-10T06:58:01;100570.34;;;19.01;42.24
5522;BME280;2783;48.730;8.006;2023-04-10T07:00:26;100559.84;;;19.41;41.59
5522;BME280;2783;48.730;8.006;2023-04-10T07:02:52;100567.13;;;19.55;41.52
5522;BME280;2783;48.730;8.006;2023-04-10T07:05:17;100558.88;;;19.86;40.23
5522;BME280;2783;48.730;8.006;2023-04-10T07:07:42;100564.84;;;20.05;40.48
5522;BME280;2783;48.730;8.006;2023-04-10T07:10:08;100570.41;;;19.60;41.06
5522;BME280;2783;48.730;8.006;2023-04-10T07:12:33;100569.53;;;19.30;42.01
5522;BME280;2783;48.730;8.006;2023-04-10T07:14:59;100567.28;;;19.07;42.88
5522;BME280;2783;48.730;8.006;2023-04-10T07:17:24;100568.06;;;19.09;43.17
5522;BME280;2783;48.730;8.006;2023-04-10T07:19:49;100570.50;;;19.29;42.93
5522;BME280;2783;48.730;8.006;2023-04-10T07:22:15;100560.31;;;19.34;43.01
5522;BME280;2783;48.730;8.006;2023-04-10T07:24:40;100567.56;;;18.87;42.91
5522;BME280;2783;48.730;8.006;2023-04-10T07:27:05;100566.38;;;18.77;43.99
5522;BME280;2783;48.730;8.006;2023-04-10T07:29:31;100572.63;;;18.46;44.17
5522;BME280;2783;48.730;8.006;2023-04-10T07:31:56;100569.25;;;18.10;42.85
5522;BME280;2783;48.730;8.006;2023-04-10T07:34:21;100565.00;;;18.37;42.95
5522;BME280;2783;48.730;8.006;2023-04-10T07:36:47;100568.13;;;18.47;42.38
5522;BME280;2783;48.730;8.006;2023-04-10T07:39:13;100569.59;;;18.68;42.40
5522;BME280;2783;48.730;8.006;2023-04-10T07:41:38;100565.50;;;18.61;42.49
5522;BME280;2783;48.730;8.006;2023-04-10T07:44:04;100568.97;;;18.78;43.23
5522;BME280;2783;48.730;8.006;2023-04-10T07:46:29;100566.69;;;19.02;44.33
5522;BME280;2783;48.730;8.006;2023-04-10T07:48:55;100562.13;;;19.18;42.86
5522;BME280;2783;48.730;8.006;2023-04-10T07:51:20;100562.69;;;19.09;42.00
5522;BME280;2783;48.730;8.006;2023-04-10T07:53:46;100570.53;;;18.82;41.14
5522;BME280;2783;48.730;8.006;2023-04-10T07:56:15;100555.97;;;19.16;41.67
5522;BME280;2783;48.730;8.006;2023-04-10T07:58:41;100551.16;;;19.21;42.06
5522;BME280;2783;48.730;8.006;2023-04-10T08:01:06;100563.50;;;18.64;41.35
5522;BME280;2783;48.730;8.006;2023-04-10T08:03:36;100559.75;;;18.82;41.25
5522;BME280;2783;48.730;8.006;2023-04-10T08:06:01;100559.00;;;19.10;41.63
5522;BME280;2783;48.730;8.006;2023-04-10T08:08:27;100552.69;;;19.11;42.17
5522;BME280;2783;48.730;8.006;2023-04-10T08:10:52;100554.97;;;19.32;41.42
5522;BME280;2783;48.730;8.006;2023-04-10T08:13:17;100554.69;;;19.67;41.20
5522;BME280;2783;48.730;8.006;2023-04-10T08:15:42;100553.28;;;20.31;40.55
5522;BME280;2783;48.730;8.006;2023-04-10T08:18:08;100558.13;;;19.98;41.85
5522;BME280;2783;48.730;8.006;2023-04-10T08:20:33;100560.97;;;19.81;40.98
5522;BME280;2783;48.730;8.006;2023-04-10T08:23:01;100556.91;;;19.74;41.22
5522;BME280;2783;48.730;8.006;2023-04-10T08:25:26;100563.69;;;19.81;41.40
5522;BME280;2783;48.730;8.006;2023-04-10T08:27:51;100562.94;;;19.93;40.04
5522;BME280;2783;48.730;8.006;2023-04-10T08:30:16;100558.59;;;20.05;40.00
5522;BME280;2783;48.730;8.006;2023-04-10T08:32:42;100567.50;;;20.21;40.32
5522;BME280;2783;48.730;8.006;2023-04-10T08:35:07;100567.47;;;20.35;39.60
5522;BME280;2783;48.730;8.006;2023-04-10T08:37:32;100559.28;;;20.22;39.27
5522;BME280;2783;48.730;8.006;2023-04-10T08:39:58;100559.28;;;20.22;39.76
5522;BME280;2783;48.730;8.006;2023-04-10T08:42:23;100556.25;;;20.55;39.22
5522;BME280;2783;48.730;8.006;2023-04-10T08:44:49;100556.84;;;20.86;39.22
5522;BME280;2783;48.730;8.006;2023-04-10T08:47:14;100554.19;;;21.13;38.67
5522;BME280;2783;48.730;8.006;2023-04-10T08:49:47;100553.72;;;21.46;39.54
5522;BME280;2783;48.730;8.006;2023-04-10T08:52:17;100547.63;;;21.81;37.62
5522;BME280;2783;48.730;8.006;2023-04-10T08:54:46;100535.47;;;22.25;38.61
5522;BME280;2783;48.730;8.006;2023-04-10T08:57:14;100548.00;;;22.63;36.58
5522;BME280;2783;48.730;8.006;2023-04-10T08:59:42;100535.91;;;23.03;37.04
5522;BME280;2783;48.730;8.006;2023-04-10T09:02:07;100539.03;;;23.33;37.52
5522;BME280;2783;48.730;8.006;2023-04-10T09:04:33;100528.94;;;23.47;34.34
5522;BME280;2783;48.730;8.006;2023-04-10T09:06:58;100530.69;;;23.00;34.13
5522;BME280;2783;48.730;8.006;2023-04-10T09:09:24;100520.69;;;22.90;36.43
5522;BME280;2783;48.730;8.006;2023-04-10T09:14:20;100519.88;;;23.70;34.04
5522;BME280;2783;48.730;8.006;2023-04-10T09:16:46;100518.84;;;23.25;34.80
5522;BME280;2783;48.730;8.006;2023-04-10T09:19:11;100509.78;;;23.37;36.79
5522;BME280;2783;48.730;8.006;2023-04-10T09:21:36;100507.09;;;23.37;34.85
5522;BME280;2783;48.730;8.006;2023-04-10T09:24:01;100503.06;;;23.54;35.47
5522;BME280;2783;48.730;8.006;2023-04-10T09:28:59;100503.13;;;23.41;35.14
5522;BME280;2783;48.730;8.006;2023-04-10T09:31:26;100506.91;;;23.62;36.09
5522;BME280;2783;48.730;8.006;2023-04-10T09:34:01;100496.22;;;23.37;36.33
5522;BME280;2783;48.730;8.006;2023-04-10T09:36:30;100494.78;;;23.44;37.70
5522;BME280;2783;48.730;8.006;2023-04-10T09:38:55;100492.91;;;23.44;35.00
5522;BME280;2783;48.730;8.006;2023-04-10T09:41:21;100489.97;;;23.59;35.01
5522;BME280;2783;48.730;8.006;2023-04-10T09:43:46;100491.94;;;23.57;31.75
5522;BME280;2783;48.730;8.006;2023-04-10T09:46:24;100485.63;;;23.45;31.39
5522;BME280;2783;48.730;8.006;2023-04-10T09:48:53;100480.88;;;23.82;33.20
5522;BME280;2783;48.730;8.006;2023-04-10T09:51:29;100471.59;;;23.84;32.98
5522;BME280;2783;48.730;8.006;2023-04-10T09:53:54;100477.31;;;24.36;31.28
5522;BME280;2783;48.730;8.006;2023-04-10T09:56:28;100470.75;;;24.17;29.71
5522;BME280;2783;48.730;8.006;2023-04-10T09:58:57;100466.06;;;23.97;29.26
5522;BME280;2783;48.730;8.006;2023-04-10T10:01:26;100453.72;;;24.04;29.94
5522;BME280;2783;48.730;8.006;2023-04-10T10:03:55;100453.47;;;24.18;30.20
5522;BME280;2783;48.730;8.006;2023-04-10T10:06:25;100452.44;;;24.95;29.20
5522;BME280;2783;48.730;8.006;2023-04-10T10:08:51;100455.97;;;25.06;28.09
5522;BME280;2783;48.730;8.006;2023-04-10T10:11:18;100446.41;;;25.32;28.77
5522;BME280;2783;48.730;8.006;2023-04-10T10:13:48;100439.34;;;25.41;28.51
5522;BME280;2783;48.730;8.006;2023-04-10T10:19:02;100443.84;;;25.31;28.71
5522;BME280;2783;48.730;8.006;2023-04-10T10:21:30;100436.81;;;25.69;29.04
5522;BME280;2783;48.730;8.006;2023-04-10T10:23:58;100434.97;;;25.49;27.31
5522;BME280;2783;48.730;8.006;2023-04-10T10:26:24;100428.91;;;25.66;28.21
5522;BME280;2783;48.730;8.006;2023-04-10T10:28:51;100425.81;;;25.80;29.36
5522;BME280;2783;48.730;8.006;2023-04-10T10:31:19;100427.41;;;26.13;28.78
5522;BME280;2783;48.730;8.006;2023-04-10T10:33:46;100420.09;;;26.14;30.13
5522;BME280;2783;48.730;8.006;2023-04-10T10:36:12;100411.91;;;26.14;30.50
5522;BME280;2783;48.730;8.006;2023-04-10T10:38:40;100404.75;;;26.13;29.71
5522;BME280;2783;48.730;8.006;2023-04-10T10:41:20;100408.38;;;25.62;29.57
5522;BME280;2783;48.730;8.006;2023-04-10T10:46:15;100402.19;;;25.90;28.99
5522;BME280;2783;48.730;8.006;2023-04-10T10:48:58;100393.41;;;26.08;29.48
5522;BME280;2783;48.730;8.006;2023-04-10T10:51:41;100396.81;;;26.10;28.58
5522;BME280;2783;48.730;8.006;2023-04-10T10:56:50;100395.03;;;25.59;29.61
5522;BME280;2783;48.730;8.006;2023-04-10T10:59:15;100390.69;;;25.57;31.29
5522;BME280;2783;48.730;8.006;2023-04-10T11:01:51;100394.28;;;24.96;29.25
5522;BME280;2783;48.730;8.006;2023-04-10T11:04:42;100376.47;;;24.60;30.29
5522;BME280;2783;48.730;8.006;2023-04-10T11:07:08;100390.19;;;24.27;31.13
5522;BME280;2783;48.730;8.006;2023-04-10T11:09:44;100381.34;;;24.03;29.81
5522;BME280;2783;48.730;8.006;2023-04-10T11:12:12;100383.59;;;24.40;30.09
5522;BME280;2783;48.730;8.006;2023-04-10T11:14:38;100369.50;;;24.78;30.42
5522;BME280;2783;48.730;8.006;2023-04-10T11:17:04;100366.31;;;25.14;29.28
5522;BME280;2783;48.730;8.006;2023-04-10T11:19:29;100366.25;;;25.46;29.77
5522;BME280;2783;48.730;8.006;2023-04-10T11:22:14;100360.22;;;26.03;28.33
5522;BME280;2783;48.730;8.006;2023-04-10T11:24:53;100360.91;;;25.65;28.91
5522;BME280;2783;48.730;8.006;2023-04-10T11:27:37;100351.47;;;25.18;30.36
5522;BME280;2783;48.730;8.006;2023-04-10T11:30:27;100359.28;;;25.53;30.98
5522;BME280;2783;48.730;8.006;2023-04-10T11:32:52;100359.88;;;25.56;29.76
5522;BME280;2783;48.730;8.006;2023-04-10T11:35:18;100361.53;;;25.78;28.53
5522;BME280;2783;48.730;8.006;2023-04-10T11:37:43;100353.13;;;25.90;30.31
5522;BME280;2783;48.730;8.006;2023-04-10T11:40:09;100352.84;;;25.63;31.18
5522;BME280;2783;48.730;8.006;2023-04-10T11:42:34;100338.66;;;26.00;31.23
5522;BME280;2783;48.730;8.006;2023-04-10T11:45:19;100333.84;;;26.51;29.57
5522;BME280;2783;48.730;8.006;2023-04-10T11:47:54;100329.56;;;26.58;29.00
5522;BME280;2783;48.730;8.006;2023-04-10T11:50:20;100337.91;;;26.66;29.35
5522;BME280;2783;48.730;8.006;2023-04-10T11:52:46;100326.69;;;26.31;30.16
5522;BME280;2783;48.730;8.006;2023-04-10T11:55:13;100312.63;;;26.35;28.87
5522;BME280;2783;48.730;8.006;2023-04-10T11:57:38;100313.25;;;25.89;31.41
5522;BME280;2783;48.730;8.006;2023-04-10T12:00:03;100308.00;;;26.07;29.24
5522;BME280;2783;48.730;8.006;2023-04-10T12:02:29;100305.31;;;25.86;29.36
5522;BME280;2783;48.730;8.006;2023-04-10T12:04:57;100303.31;;;25.88;28.01
5522;BME280;2783;48.730;8.006;2023-04-10T12:07:23;100293.56;;;25.86;29.46
5522;BME280;2783;48.730;8.006;2023-04-10T12:09:58;100289.53;;;25.80;30.03
5522;BME280;2783;48.730;8.006;2023-04-10T12:12:35;100295.88;;;25.90;29.45
5522;BME280;2783;48.730;8.006;2023-04-10T12:15:01;100279.84;;;25.57;28.56
5522;BME280;2783;48.730;8.006;2023-04-10T12:17:26;100277.47;;;25.13;28.66
5522;BME280;2783;48.730;8.006;2023-04-10T12:19:52;100282.00;;;25.63;31.19
5522;BME280;2783;48.730;8.006;2023-04-10T12:22:17;100281.31;;;26.11;30.44
5522;BME280;2783;48.730;8.006;2023-04-10T12:24:46;100277.59;;;26.40;30.13
5522;BME280;2783;48.730;8.006;2023-04-10T12:29:44;100281.59;;;26.08;28.78
5522;BME280;2783;48.730;8.006;2023-04-10T12:32:09;100284.75;;;26.13;30.43
5522;BME280;2783;48.730;8.006;2023-04-10T12:34:35;100286.19;;;26.55;31.29
5522;BME280;2783;48.730;8.006;2023-04-10T12:37:00;100283.34;;;26.75;30.51
5522;BME280;2783;48.730;8.006;2023-04-10T12:39:27;100267.84;;;26.66;29.07
5522;BME280;2783;48.730;8.006;2023-04-10T12:41:52;100265.94;;;26.86;28.17
5522;BME280;2783;48.730;8.006;2023-04-10T12:44:17;100271.13;;;26.70;29.12
5522;BME280;2783;48.730;8.006;2023-04-10T12:46:44;100269.56;;;26.77;29.27
5522;BME280;2783;48.730;8.006;2023-04-10T12:49:14;100260.94;;;26.72;28.92
5522;BME280;2783;48.730;8.006;2023-04-10T12:51:42;100249.69;;;26.56;29.25
5522;BME280;2783;48.730;8.006;2023-04-10T12:54:08;100247.84;;;26.18;28.88
5522;BME280;2783;48.730;8.006;2023-04-10T12:56:40;100250.16;;;26.13;29.33
5522;BME280;2783;48.730;8.006;2023-04-10T12:59:06;100246.19;;;25.58;30.02
5522;BME280;2783;48.730;8.006;2023-04-10T13:01:31;100239.00;;;25.67;32.19
5522;BME280;2783;48.730;8.006;2023-04-10T13:03:57;100231.06;;;26.04;32.57
5522;BME280;2783;48.730;8.006;2023-04-10T13:06:22;100234.16;;;25.80;30.29
5522;BME280;2783;48.730;8.006;2023-04-10T13:08:47;100234.72;;;25.74;30.83
5522;BME280;2783;48.730;8.006;2023-04-10T13:11:13;100235.28;;;25.28;30.61
5522;BME280;2783;48.730;8.006;2023-04-10T13:13:38;100220.88;;;25.07;31.74
5522;BME280;2783;48.730;8.006;2023-04-10T13:16:03;100212.16;;;25.23;31.57
5522;BME280;2783;48.730;8.006;2023-04-10T13:18:28;100216.50;;;25.25;32.24
5522;BME280;2783;48.730;8.006;2023-04-10T13:20:54;100222.03;;;24.84;30.48
5522;BME280;2783;48.730;8.006;2023-04-10T13:23:19;100217.75;;;24.91;32.07
5522;BME280;2783;48.730;8.006;2023-04-10T13:25:44;100219.03;;;24.87;30.88
5522;BME280;2783;48.730;8.006;2023-04-10T13:28:10;100213.47;;;24.89;32.18
5522;BME280;2783;48.730;8.006;2023-04-10T13:30:36;100206.56;;;24.64;31.65
5522;BME280;2783;48.730;8.006;2023-04-10T13:33:01;100212.34;;;24.29;31.68
5522;BME280;2783;48.730;8.006;2023-04-10T13:35:26;100208.88;;;24.07;30.75
5522;BME280;2783;48.730;8.006;2023-04-10T13:37:52;100197.91;;;23.21;32.89